Time;durP1;ratioP1;P1;durP2;ratioP2;P2;SDS_P1;SDS_P2;PMS_P1;PMS_P2;Temp;Humidity;BMP_temperature;BMP_pressure;BME280_temperature;BME280_humidity;BME280_pressure;Samples;Min_cycle;Max_cycle;Signal;HPM_P1;HPM_P2
2021/08/27 00:01:44;;;;;;;4.70;1.40;;;13.30;99.90;;;;;;4952713;28;20715;-88
2021/08/27 00:04:10;;;;;;;4.40;1.40;;;13.30;99.90;;;;;;4951791;28;20676;-90
2021/08/27 00:06:35;;;;;;;3.83;1.23;;;13.30;99.90;;;;;;4952149;28;20196;-90
2021/08/27 00:09:01;;;;;;;4.67;1.37;;;13.30;99.90;;;;;;4952710;28;20236;-89
2021/08/27 00:11:27;;;;;;;2.73;1.17;;;13.40;99.90;;;;;;4967947;28;20196;-90
2021/08/27 00:13:52;;;;;;;8.37;1.53;;;13.40;99.90;;;;;;4952314;28;20267;-88
2021/08/27 00:16:18;;;;;;;5.27;1.20;;;13.40;99.90;;;;;;4951925;28;20219;-90
2021/08/27 00:18:43;;;;;;;3.50;1.20;;;13.40;99.90;;;;;;4951700;28;20548;-88
2021/08/27 00:21:09;;;;;;;2.73;0.90;;;13.40;99.90;;;;;;4967581;28;20184;-90
2021/08/27 00:23:34;;;;;;;6.73;1.30;;;13.30;99.90;;;;;;4950734;28;20185;-88
2021/08/27 00:26:00;;;;;;;4.53;1.53;;;13.40;99.90;;;;;;4967383;28;20511;-87
2021/08/27 00:28:26;;;;;;;6.10;1.20;;;13.40;99.90;;;;;;4951485;28;20177;-88
2021/08/27 00:30:51;;;;;;;2.43;1.03;;;13.40;99.90;;;;;;4951693;28;20224;-88
2021/08/27 00:33:17;;;;;;;3.07;1.20;;;13.50;99.90;;;;;;4951369;28;20192;-91
2021/08/27 00:35:42;;;;;;;4.20;1.30;;;13.40;99.90;;;;;;4954005;28;20192;-90
2021/08/27 00:38:14;;;;;;;5.43;1.50;;;13.40;99.90;;;;;;4965862;28;20172;-91
2021/08/27 00:40:41;;;;;;;7.17;1.40;;;13.40;99.90;;;;;;4961515;29;20208;-92
2021/08/27 00:43:08;;;;;;;3.87;1.30;;;13.40;99.90;;;;;;4965064;28;20205;-90
2021/08/27 00:45:33;;;;;;;3.10;1.30;;;13.40;99.90;;;;;;4945469;29;20559;-89
2021/08/27 00:48:00;;;;;;;5.10;1.50;;;13.30;99.90;;;;;;4945882;29;20189;-88
2021/08/27 00:50:26;;;;;;;3.40;1.40;;;13.30;99.90;;;;;;4945367;29;20197;-91
2021/08/27 00:52:52;;;;;;;3.50;1.30;;;13.30;99.90;;;;;;4946817;29;20209;-90
2021/08/27 00:55:18;;;;;;;4.10;1.33;;;13.30;99.90;;;;;;4946153;29;20531;-87
2021/08/27 00:57:43;;;;;;;2.60;1.20;;;13.30;99.90;;;;;;4946732;29;20185;-90
2021/08/27 01:00:10;;;;;;;4.60;1.57;;;13.20;99.90;;;;;;4946988;29;20704;-89
2021/08/27 01:02:36;;;;;;;4.47;1.23;;;13.20;99.90;;;;;;4946361;29;20616;-88
2021/08/27 01:05:04;;;;;;;5.83;1.07;;;13.10;99.90;;;;;;4946737;29;20189;-91
2021/08/27 01:07:31;;;;;;;5.23;1.30;;;13.10;99.90;;;;;;4947307;29;20269;-89
2021/08/27 01:10:04;;;;;;;3.57;1.37;;;13.10;99.90;;;;;;4947844;29;20297;-88
2021/08/27 01:12:53;;;;;;;3.73;0.97;;;13.00;99.90;;;;;;4947940;29;20201;-86
2021/08/27 01:15:27;;;;;;;7.83;1.70;;;13.00;99.90;;;;;;4961318;28;20185;-93
2021/08/27 01:18:03;;;;;;;4.63;1.33;;;13.00;99.90;;;;;;4964972;28;20705;-91
2021/08/27 01:20:49;;;;;;;3.30;1.10;;;12.90;99.90;;;;;;4981045;28;20162;-92
2021/08/27 01:23:16;;;;;;;5.23;1.60;;;12.90;99.90;;;;;;4964363;28;20189;-91
2021/08/27 01:25:44;;;;;;;5.00;1.50;;;12.90;99.90;;;;;;4980348;28;20185;-92
2021/08/27 01:28:10;;;;;;;4.53;1.57;;;12.90;99.90;;;;;;4964481;28;20458;-90
2021/08/27 01:30:51;;;;;;;7.03;1.40;;;13.00;99.90;;;;;;4963977;28;20224;-93
2021/08/27 01:33:19;;;;;;;4.50;1.20;;;13.00;99.90;;;;;;4964094;28;20189;-92
2021/08/27 01:35:47;;;;;;;6.13;1.30;;;13.00;99.90;;;;;;4963996;28;20182;-91
2021/08/27 01:38:12;;;;;;;4.93;1.43;;;13.00;99.90;;;;;;4963711;28;20162;-91
2021/08/27 01:40:38;;;;;;;4.33;1.33;;;13.00;99.90;;;;;;4963923;28;20174;-92
2021/08/27 01:43:06;;;;;;;6.70;1.17;;;13.00;99.90;;;;;;4963372;28;20211;-94
2021/08/27 01:45:33;;;;;;;3.27;1.50;;;13.00;99.90;;;;;;4969326;28;20637;-89
2021/08/27 01:47:59;;;;;;;5.53;1.20;;;13.10;99.90;;;;;;4961558;29;20185;-88
2021/08/27 01:50:25;;;;;;;4.30;1.20;;;13.10;99.90;;;;;;4946108;29;20208;-89
2021/08/27 01:52:50;;;;;;;3.03;1.20;;;13.10;99.90;;;;;;4946162;29;20247;-88
2021/08/27 01:55:16;;;;;;;5.13;1.50;;;13.10;99.90;;;;;;4945993;29;20201;-88
2021/08/27 01:57:42;;;;;;;4.73;1.47;;;13.10;99.90;;;;;;4947084;29;20182;-87
2021/08/27 02:00:10;;;;;;;4.37;1.23;;;13.10;99.90;;;;;;4946498;29;20189;-86
2021/08/27 02:02:35;;;;;;;3.07;1.10;;;13.00;99.90;;;;;;4948037;29;20204;-87
2021/08/27 02:05:03;;;;;;;3.40;1.10;;;13.00;99.90;;;;;;4946837;29;20181;-89
2021/08/27 02:07:29;;;;;;;5.07;1.13;;;13.00;99.90;;;;;;4947797;29;20189;-86
2021/08/27 02:09:56;;;;;;;4.90;1.17;;;12.90;99.90;;;;;;4947406;29;20228;-86
2021/08/27 02:12:23;;;;;;;4.67;1.10;;;12.90;99.90;;;;;;4949403;29;20244;-86
2021/08/27 02:14:50;;;;;;;5.80;1.30;;;12.90;99.90;;;;;;4949217;29;20285;-85
2021/08/27 02:17:16;;;;;;;5.30;1.40;;;12.90;99.90;;;;;;4948480;29;20209;-88
2021/08/27 02:19:42;;;;;;;5.67;1.20;;;12.90;99.90;;;;;;4946375;29;20190;-88
2021/08/27 02:22:11;;;;;;;6.23;1.60;;;12.90;99.90;;;;;;4947843;29;20228;-88
2021/08/27 02:25:03;;;;;;;4.00;1.13;;;13.00;99.90;;;;;;4947173;29;20202;-87
2021/08/27 02:27:29;;;;;;;5.03;1.40;;;13.10;99.90;;;;;;4942454;29;20197;-87
2021/08/27 02:29:55;;;;;;;5.60;1.30;;;13.10;99.90;;;;;;4944919;29;20695;-87
2021/08/27 02:32:21;;;;;;;5.43;1.20;;;13.10;99.90;;;;;;4945633;29;20569;-86
2021/08/27 02:34:47;;;;;;;5.10;1.33;;;13.10;99.90;;;;;;4945507;29;20656;-90
2021/08/27 02:37:15;;;;;;;6.13;1.47;;;13.10;99.90;;;;;;4944750;29;20174;-88
2021/08/27 02:39:41;;;;;;;4.37;1.20;;;13.10;99.90;;;;;;4944607;29;20181;-87
2021/08/27 02:42:07;;;;;;;5.17;1.47;;;13.20;99.90;;;;;;4944911;29;20220;-87
2021/08/27 02:44:32;;;;;;;6.17;1.30;;;13.20;99.90;;;;;;4944694;29;20217;-88
2021/08/27 02:46:58;;;;;;;4.10;1.23;;;13.20;99.90;;;;;;4944621;29;20185;-86
2021/08/27 02:49:24;;;;;;;3.93;1.00;;;13.20;99.90;;;;;;4944621;28;20209;-87
2021/08/27 02:52:08;;;;;;;3.77;1.40;;;13.30;99.90;;;;;;4944237;29;20209;-86
2021/08/27 02:54:39;;;;;;;4.90;1.40;;;13.30;99.90;;;;;;4961630;29;20196;-87
2021/08/27 02:57:05;;;;;;;4.47;1.33;;;13.40;99.90;;;;;;4945507;29;20712;-90
2021/08/27 02:59:31;;;;;;;3.80;1.00;;;13.40;99.90;;;;;;4944413;29;20209;-92
2021/08/27 03:01:56;;;;;;;7.23;1.40;;;13.40;99.90;;;;;;4944993;29;20252;-87
2021/08/27 03:04:44;;;;;;;3.27;1.23;;;13.40;99.90;;;;;;4944489;29;20200;-87
2021/08/27 03:07:13;;;;;;;4.47;1.30;;;13.40;99.90;;;;;;4961179;29;20253;-87
2021/08/27 03:09:59;;;;;;;5.07;1.40;;;13.40;99.90;;;;;;4944862;29;20216;-87
2021/08/27 03:12:47;;;;;;;3.30;1.17;;;13.50;99.90;;;;;;4944824;29;20193;-85
2021/08/27 03:15:19;;;;;;;5.73;1.57;;;13.40;99.90;;;;;;4946982;29;20257;-90
2021/08/27 03:17:45;;;;;;;5.03;1.90;;;13.50;99.90;;;;;;4944756;29;20273;-90
2021/08/27 03:20:15;;;;;;;6.13;1.27;;;13.50;99.90;;;;;;4944965;29;20232;-89
2021/08/27 03:22:51;;;;;;;3.30;1.30;;;13.50;99.90;;;;;;4944579;29;20197;-91
2021/08/27 03:25:17;;;;;;;3.90;1.20;;;13.50;99.90;;;;;;4945596;29;20209;-90
2021/08/27 03:27:49;;;;;;;3.77;1.40;;;13.50;99.90;;;;;;4949421;28;20173;-94
2021/08/27 03:30:22;;;;;;;3.23;1.40;;;13.50;99.90;;;;;;4962836;28;20201;-94
2021/08/27 03:32:53;;;;;;;3.67;1.20;;;13.50;99.90;;;;;;4962844;28;20260;-94
2021/08/27 03:35:20;;;;;;;4.73;1.53;;;13.50;99.90;;;;;;4962567;28;20197;-95
2021/08/27 03:37:47;;;;;;;6.07;1.20;;;13.50;99.90;;;;;;4962558;28;20192;-94
2021/08/27 03:40:13;;;;;;;5.17;1.60;;;13.40;99.90;;;;;;4962522;28;20177;-93
2021/08/27 03:42:39;;;;;;;3.90;1.27;;;13.40;99.90;;;;;;4962164;28;20217;-93
2021/08/27 03:45:05;;;;;;;5.57;1.60;;;13.40;99.90;;;;;;4962501;28;20174;-94
2021/08/27 03:47:31;;;;;;;5.47;1.63;;;13.30;99.90;;;;;;4962416;28;20205;-93
2021/08/27 03:49:57;;;;;;;6.83;1.87;;;13.30;99.90;;;;;;4962447;28;20241;-94
2021/08/27 03:52:23;;;;;;;5.07;1.67;;;13.20;99.90;;;;;;4978321;28;20205;-93
2021/08/27 03:54:49;;;;;;;7.23;2.20;;;13.20;99.90;;;;;;4962559;28;20158;-94
2021/08/27 03:57:14;;;;;;;3.80;2.13;;;13.20;99.90;;;;;;4962419;28;20173;-94
2021/08/27 03:59:40;;;;;;;4.37;2.20;;;13.20;99.90;;;;;;4962401;28;20189;-93
2021/08/27 04:02:06;;;;;;;6.27;2.40;;;13.10;99.90;;;;;;4979848;28;20204;-95
2021/08/27 04:04:32;;;;;;;5.37;2.37;;;13.20;99.90;;;;;;4965900;28;20250;-95
2021/08/27 04:07:01;;;;;;;7.87;3.13;;;13.10;99.90;;;;;;4965953;28;20161;-96
2021/08/27 04:09:27;;;;;;;7.80;3.57;;;13.10;99.90;;;;;;4965753;28;20213;-96
2021/08/27 04:11:53;;;;;;;8.43;3.20;;;13.20;99.90;;;;;;4965642;28;20277;-92
2021/08/27 04:14:19;;;;;;;10.47;3.60;;;13.10;99.90;;;;;;4965788;28;20181;-94
2021/08/27 04:16:44;;;;;;;8.20;3.73;;;13.10;99.90;;;;;;4965623;28;20169;-94
2021/08/27 04:19:10;;;;;;;6.43;3.70;;;13.10;99.90;;;;;;4965598;28;20205;-95
2021/08/27 04:21:37;;;;;;;6.00;3.53;;;13.10;99.90;;;;;;4965499;28;20193;-95
2021/08/27 04:24:03;;;;;;;8.57;4.03;;;13.10;99.90;;;;;;4965523;28;20261;-96
2021/08/27 04:26:29;;;;;;;11.47;4.53;;;13.00;99.90;;;;;;4965614;28;20185;-93
2021/08/27 04:28:54;;;;;;;8.10;4.27;;;13.10;99.90;;;;;;4965322;28;20246;-93
2021/08/27 04:31:20;;;;;;;9.53;4.30;;;13.10;99.90;;;;;;4965435;28;20205;-93
2021/08/27 04:33:46;;;;;;;9.63;4.63;;;13.10;99.90;;;;;;4965398;28;20173;-94
2021/08/27 04:36:11;;;;;;;9.50;4.50;;;13.20;99.90;;;;;;4965217;28;20201;-94
2021/08/27 04:38:37;;;;;;;8.70;4.30;;;13.10;99.90;;;;;;4965274;28;20166;-94
2021/08/27 04:41:02;;;;;;;8.33;3.70;;;13.20;99.90;;;;;;4980616;28;20176;-95
2021/08/27 04:43:28;;;;;;;5.07;3.67;;;13.20;99.90;;;;;;4987569;28;20203;-93
2021/08/27 04:45:53;;;;;;;7.87;4.07;;;13.30;99.90;;;;;;4987589;28;20240;-95
2021/08/27 04:48:22;;;;;;;10.77;4.20;;;13.30;99.90;;;;;;4987736;28;20173;-94
2021/08/27 04:50:47;;;;;;;9.77;4.40;;;13.30;99.90;;;;;;4988093;28;20216;-94
2021/08/27 04:53:13;;;;;;;7.17;3.77;;;13.30;99.90;;;;;;4987451;28;20207;-94
2021/08/27 04:55:38;;;;;;;9.67;3.80;;;13.40;99.90;;;;;;4979900;28;20708;-90
2021/08/27 04:58:04;;;;;;;6.90;3.33;;;13.30;99.90;;;;;;4963548;28;20201;-92
2021/08/27 05:00:30;;;;;;;6.07;3.40;;;13.30;99.90;;;;;;4963376;28;20184;-86
2021/08/27 05:02:55;;;;;;;6.57;3.20;;;13.30;99.90;;;;;;4994571;28;20205;-95
2021/08/27 05:05:21;;;;;;;4.27;2.97;;;13.30;99.90;;;;;;4964948;28;20288;-89
2021/08/27 05:07:47;;;;;;;7.67;3.07;;;13.40;99.90;;;;;;4961920;28;20173;-92
2021/08/27 05:10:13;;;;;;;6.17;3.13;;;13.40;99.90;;;;;;4960727;28;20205;-91
2021/08/27 05:12:38;;;;;;;5.40;2.97;;;13.40;99.90;;;;;;4964138;28;20232;-90
2021/08/27 05:15:05;;;;;;;5.63;2.50;;;13.40;99.90;;;;;;4960765;28;20208;-92
2021/08/27 05:17:30;;;;;;;5.67;2.70;;;13.40;99.90;;;;;;4958209;28;20184;-90
2021/08/27 05:19:56;;;;;;;6.03;2.80;;;13.40;99.90;;;;;;4986583;28;20188;-88
2021/08/27 05:22:21;;;;;;;4.30;2.30;;;13.40;99.90;;;;;;4978290;28;20207;-89
2021/08/27 05:24:47;;;;;;;4.70;2.27;;;13.40;99.90;;;;;;4966764;28;20177;-86
2021/08/27 05:27:13;;;;;;;9.63;2.60;;;13.40;99.90;;;;;;4980064;28;20227;-85
2021/08/27 05:29:38;;;;;;;3.60;2.20;;;13.50;99.90;;;;;;4990154;28;20196;-81
2021/08/27 05:32:05;;;;;;;4.47;2.10;;;13.50;99.90;;;;;;4988312;28;20203;-85
2021/08/27 05:34:30;;;;;;;4.57;2.10;;;13.60;99.90;;;;;;4969967;28;20181;-85
2021/08/27 05:36:56;;;;;;;5.17;1.93;;;13.70;99.90;;;;;;4966622;28;20177;-92
2021/08/27 05:39:21;;;;;;;3.83;1.90;;;13.70;99.90;;;;;;4968167;28;20193;-88
2021/08/27 05:41:47;;;;;;;5.97;2.10;;;13.80;99.90;;;;;;4952451;28;20220;-89
2021/08/27 05:44:12;;;;;;;4.10;1.83;;;13.80;99.90;;;;;;4967592;28;20192;-87
2021/08/27 05:46:38;;;;;;;7.03;2.10;;;13.80;99.90;;;;;;4951360;28;20213;-88
2021/08/27 05:49:04;;;;;;;5.07;1.63;;;13.90;99.90;;;;;;4950294;28;20197;-90
2021/08/27 05:51:29;;;;;;;4.67;1.70;;;14.00;99.90;;;;;;4966256;28;20596;-88
2021/08/27 05:53:55;;;;;;;5.57;1.73;;;14.10;99.90;;;;;;4950839;28;20320;-89
2021/08/27 05:56:21;;;;;;;2.50;1.33;;;14.10;99.90;;;;;;4950687;28;20177;-88
2021/08/27 05:58:48;;;;;;;2.77;1.43;;;14.10;99.90;;;;;;4952016;28;20176;-89
2021/08/27 06:01:16;;;;;;;3.43;1.60;;;14.20;99.90;;;;;;4953519;28;20711;-92
2021/08/27 06:03:41;;;;;;;4.37;1.53;;;14.20;99.90;;;;;;4973400;28;20257;-87
2021/08/27 06:06:07;;;;;;;4.53;1.50;;;14.20;99.90;;;;;;4953921;28;20185;-93
2021/08/27 06:08:34;;;;;;;3.17;1.37;;;14.20;99.90;;;;;;4959762;28;20180;-93
2021/08/27 06:11:00;;;;;;;4.37;1.83;;;14.30;99.90;;;;;;4964865;28;20315;-91
2021/08/27 06:13:26;;;;;;;4.13;1.70;;;14.50;99.90;;;;;;4952464;28;20330;-93
2021/08/27 06:15:52;;;;;;;4.03;1.70;;;14.90;99.90;;;;;;4971745;28;20177;-90
2021/08/27 06:18:18;;;;;;;6.17;2.03;;;15.30;99.90;;;;;;4950967;28;20180;-86
2021/08/27 06:20:44;;;;;;;3.67;1.63;;;15.40;99.90;;;;;;4944648;28;20260;-86
2021/08/27 06:23:09;;;;;;;3.83;1.90;;;15.20;99.90;;;;;;4974705;28;20196;-87
2021/08/27 06:25:35;;;;;;;5.80;1.87;;;15.20;99.90;;;;;;4974755;28;20243;-89
2021/08/27 06:28:01;;;;;;;6.17;1.70;;;15.10;99.90;;;;;;4955975;28;20573;-87
2021/08/27 06:30:27;;;;;;;3.33;1.60;;;15.10;99.90;;;;;;4945072;28;20205;-87
2021/08/27 06:32:52;;;;;;;4.63;2.00;;;15.10;99.90;;;;;;4974932;28;20204;-86
2021/08/27 06:35:18;;;;;;;4.20;2.00;;;15.20;99.90;;;;;;4959814;28;20176;-85
2021/08/27 06:40:28;;;;;;;5.70;1.73;;;15.40;99.90;;;;;;4970303;28;20250;-87
2021/08/27 06:42:53;;;;;;;4.63;1.77;;;15.50;99.90;;;;;;4988680;28;20220;-88
2021/08/27 06:45:19;;;;;;;3.73;1.50;;;15.60;99.90;;;;;;4974524;28;20180;-87
2021/08/27 06:47:44;;;;;;;4.67;1.70;;;15.60;99.90;;;;;;4973841;28;20184;-86
2021/08/27 06:50:10;;;;;;;5.57;1.80;;;15.50;99.90;;;;;;4957032;28;20191;-87
2021/08/27 06:52:36;;;;;;;6.03;1.90;;;15.50;99.90;;;;;;4954047;28;20697;-88
2021/08/27 06:55:01;;;;;;;5.07;1.90;;;15.50;99.90;;;;;;4982821;28;20177;-87
2021/08/27 06:57:27;;;;;;;4.77;1.80;;;15.50;99.90;;;;;;4960819;28;20184;-86
2021/08/27 06:59:54;;;;;;;5.37;1.70;;;15.50;99.90;;;;;;4991462;28;20731;-87
2021/08/27 07:02:19;;;;;;;4.40;1.70;;;15.60;99.90;;;;;;4991719;28;20197;-86
2021/08/27 07:04:45;;;;;;;4.77;1.80;;;15.50;99.90;;;;;;4956222;28;20656;-86
2021/08/27 07:07:10;;;;;;;6.67;1.77;;;15.50;99.90;;;;;;4960753;28;20181;-84
2021/08/27 07:09:36;;;;;;;4.43;1.33;;;15.50;99.90;;;;;;4959373;28;20201;-86
2021/08/27 07:12:02;;;;;;;4.87;1.53;;;15.50;99.90;;;;;;4982376;28;20200;-86
2021/08/27 07:14:27;;;;;;;4.17;1.70;;;15.60;99.90;;;;;;4974946;28;20193;-86
2021/08/27 07:16:53;;;;;;;5.07;1.50;;;15.70;99.90;;;;;;4992469;28;20656;-86
2021/08/27 07:19:19;;;;;;;5.23;1.90;;;15.70;99.90;;;;;;4959218;28;20188;-85
2021/08/27 07:21:45;;;;;;;3.67;1.57;;;15.80;99.90;;;;;;4974697;28;20217;-85
2021/08/27 07:24:10;;;;;;;3.80;1.50;;;16.00;99.90;;;;;;4975289;28;20185;-85
2021/08/27 07:26:36;;;;;;;3.50;1.10;;;16.70;99.90;;;;;;4979568;28;20622;-82
2021/08/27 07:29:01;;;;;;;6.37;1.47;;;17.30;99.90;;;;;;4974692;28;20239;-84
2021/08/27 07:31:27;;;;;;;2.90;1.50;;;17.40;99.90;;;;;;4957792;28;20181;-84
2021/08/27 07:33:52;;;;;;;4.33;1.20;;;17.30;99.90;;;;;;4979438;28;20244;-84
2021/08/27 07:36:18;;;;;;;4.27;1.20;;;17.40;99.90;;;;;;4971693;28;20201;-84
2021/08/27 07:38:43;;;;;;;5.57;1.60;;;17.50;99.90;;;;;;4962399;28;20185;-84
2021/08/27 07:41:10;;;;;;;3.77;1.33;;;17.60;99.90;;;;;;4994309;28;20613;-85
2021/08/27 07:43:35;;;;;;;4.63;1.47;;;17.90;99.90;;;;;;4976020;28;20189;-84
2021/08/27 07:46:01;;;;;;;4.00;1.40;;;18.00;99.90;;;;;;4980439;28;20319;-83
2021/08/27 07:48:27;;;;;;;5.00;1.37;;;17.90;99.90;;;;;;4968029;28;20219;-83
2021/08/27 07:50:53;;;;;;;2.53;1.20;;;17.70;99.90;;;;;;4975858;28;20672;-84
2021/08/27 07:53:19;;;;;;;3.60;1.57;;;17.40;99.90;;;;;;4976336;28;20206;-84
2021/08/27 07:55:45;;;;;;;4.63;1.57;;;17.30;99.90;;;;;;4976059;28;20581;-83
2021/08/27 07:58:11;;;;;;;3.13;1.30;;;17.40;99.90;;;;;;4961175;28;20236;-83
2021/08/27 08:00:36;;;;;;;4.03;1.40;;;17.50;99.90;;;;;;4962237;28;20591;-84
2021/08/27 08:03:03;;;;;;;4.60;1.47;;;17.70;99.90;;;;;;4991457;28;20223;-87
2021/08/27 08:05:29;;;;;;;5.27;1.43;;;17.80;99.90;;;;;;4971791;28;20189;-88
2021/08/27 08:07:55;;;;;;;8.90;1.80;;;17.70;99.90;;;;;;4974615;28;20652;-87
2021/08/27 08:10:22;;;;;;;5.33;1.50;;;17.60;99.90;;;;;;4968639;28;20204;-88
2021/08/27 08:12:48;;;;;;;4.27;1.80;;;17.40;99.90;;;;;;4971923;28;20212;-84
2021/08/27 08:15:14;;;;;;;4.17;1.80;;;17.20;99.90;;;;;;4997511;28;20176;-82
2021/08/27 08:17:40;;;;;;;4.70;1.43;;;17.00;99.90;;;;;;4973916;28;20193;-83
2021/08/27 08:20:06;;;;;;;5.20;1.70;;;16.90;99.90;;;;;;4969068;28;20291;-85
2021/08/27 08:22:32;;;;;;;4.17;1.33;;;16.80;99.90;;;;;;4977844;28;20219;-82
2021/08/27 08:24:57;;;;;;;3.40;1.60;;;16.80;99.90;;;;;;4997558;28;20185;-81
2021/08/27 08:27:26;;;;;;;6.63;1.60;;;16.80;99.90;;;;;;4974869;28;20189;-83
2021/08/27 08:29:52;;;;;;;2.77;1.03;;;16.90;99.90;;;;;;4976630;28;20243;-81
2021/08/27 08:32:17;;;;;;;5.20;1.33;;;17.00;99.90;;;;;;4979948;28;20209;-85
2021/08/27 08:34:43;;;;;;;6.67;1.33;;;16.90;99.90;;;;;;4976779;28;20552;-88
2021/08/27 08:37:08;;;;;;;6.27;1.40;;;16.80;99.90;;;;;;4946475;28;20185;-91
2021/08/27 08:39:37;;;;;;;4.00;1.47;;;16.70;99.90;;;;;;4975643;28;20181;-88
2021/08/27 08:42:03;;;;;;;2.70;1.20;;;16.70;99.90;;;;;;4956216;28;20321;-89
2021/08/27 08:44:29;;;;;;;3.87;1.10;;;16.70;99.90;;;;;;4987710;28;20193;-89
2021/08/27 08:46:55;;;;;;;3.27;1.10;;;16.80;99.90;;;;;;4957737;28;20230;-88
2021/08/27 08:49:21;;;;;;;4.20;1.07;;;16.90;99.90;;;;;;4975948;28;20230;-89
2021/08/27 08:51:48;;;;;;;4.17;1.03;;;16.90;99.90;;;;;;4962380;28;20207;-88
2021/08/27 08:54:15;;;;;;;3.17;1.40;;;16.90;99.90;;;;;;4962892;28;20180;-88
2021/08/27 08:56:44;;;;;;;2.73;1.20;;;17.00;99.90;;;;;;4943262;28;20181;-89
2021/08/27 08:59:10;;;;;;;3.83;1.43;;;17.20;99.90;;;;;;4940036;29;20197;-88
2021/08/27 09:01:36;;;;;;;4.90;1.30;;;17.30;99.90;;;;;;4976816;23;20226;-78
2021/08/27 09:04:02;;;;;;;3.10;1.13;;;17.50;99.90;;;;;;4978244;28;20188;-78
2021/08/27 09:06:29;;;;;;;2.23;1.10;;;17.50;99.90;;;;;;4981531;28;20186;-79
2021/08/27 09:08:59;;;;;;;4.87;1.90;;;17.80;99.90;;;;;;4978865;28;20177;-79
2021/08/27 09:11:25;;;;;;;6.00;1.30;;;18.10;99.90;;;;;;4976201;28;20199;-79
2021/08/27 09:13:52;;;;;;;5.57;1.47;;;18.40;99.90;;;;;;4985305;28;20240;-79
2021/08/27 09:16:18;;;;;;;3.37;1.13;;;18.60;99.90;;;;;;4981631;28;20265;-78
2021/08/27 09:18:47;;;;;;;3.37;1.17;;;18.70;99.90;;;;;;4984525;28;20188;-79
2021/08/27 09:21:47;;;;;;;5.63;1.20;;;18.60;99.90;;;;;;4968185;28;20196;-79
2021/08/27 09:24:13;;;;;;;3.23;1.20;;;18.40;99.90;;;;;;5008451;28;20172;-79
2021/08/27 09:26:39;;;;;;;7.90;4.97;;;18.20;99.90;;;;;;4994450;28;20233;-79
2021/08/27 09:29:04;;;;;;;2.40;1.10;;;18.20;99.90;;;;;;5011826;28;20185;-77
2021/08/27 09:31:53;;;;;;;4.70;1.33;;;18.10;99.90;;;;;;4993292;28;20228;-76
2021/08/27 09:34:18;;;;;;;3.23;1.43;;;17.90;99.90;;;;;;5002721;28;20683;-81
2021/08/27 09:36:44;;;;;;;4.87;1.40;;;17.90;99.90;;;;;;4949214;28;20181;-79
2021/08/27 09:39:11;;;;;;;2.73;0.90;;;18.10;99.90;;;;;;4948360;28;20196;-79
2021/08/27 09:41:37;;;;;;;4.93;1.33;;;18.30;99.90;;;;;;4987600;28;20243;-79
2021/08/27 09:44:12;;;;;;;2.90;1.13;;;18.50;99.90;;;;;;4995619;28;20582;-77
2021/08/27 09:46:42;;;;;;;3.80;1.17;;;18.80;99.90;;;;;;4987372;28;20262;-77
2021/08/27 09:49:26;;;;;;;3.17;1.07;;;19.10;99.90;;;;;;4969763;28;20180;-79
2021/08/27 09:51:53;;;;;;;2.20;1.00;;;19.40;99.90;;;;;;4987515;28;20228;-79
2021/08/27 09:54:32;;;;;;;4.37;0.90;;;19.40;99.90;;;;;;4986008;28;20177;-78
2021/08/27 09:57:04;;;;;;;2.83;0.90;;;19.50;99.90;;;;;;4990535;28;20183;-78
2021/08/27 09:59:36;;;;;;;5.07;1.20;;;19.50;99.90;;;;;;4966578;28;20197;-79
2021/08/27 10:02:03;;;;;;;2.70;1.20;;;19.40;99.90;;;;;;4996468;28;20324;-79
2021/08/27 10:04:30;;;;;;;4.03;1.40;;;19.50;99.90;;;;;;4990522;28;20191;-79
2021/08/27 10:06:57;;;;;;;2.97;0.97;;;19.60;99.90;;;;;;4988747;28;20185;-80
2021/08/27 10:09:22;;;;;;;1.63;0.90;;;19.60;99.90;;;;;;4998519;28;20286;-79
2021/08/27 10:11:55;;;;;;;3.30;0.80;;;19.60;99.90;;;;;;4977781;28;20235;-79
2021/08/27 10:14:21;;;;;;;2.93;1.10;;;19.50;99.90;;;;;;4962741;28;20197;-78
2021/08/27 10:16:46;;;;;;;2.07;1.00;;;19.60;99.90;;;;;;5000023;28;20360;-81
2021/08/27 10:19:21;;;;;;;1.73;0.90;;;19.80;99.90;;;;;;4990981;28;20188;-77
2021/08/27 10:21:51;;;;;;;4.90;1.00;;;19.80;99.90;;;;;;4993244;28;20223;-77
2021/08/27 10:24:16;;;;;;;3.93;1.00;;;19.60;99.90;;;;;;4978248;28;20192;-77
2021/08/27 10:26:42;;;;;;;1.77;0.90;;;19.30;99.90;;;;;;4980176;28;20185;-77
2021/08/27 10:29:07;;;;;;;1.63;0.80;;;19.00;99.90;;;;;;4978384;28;20698;-77
2021/08/27 10:31:51;;;;;;;2.57;1.00;;;18.90;99.90;;;;;;4975519;28;20201;-78
2021/08/27 10:34:18;;;;;;;4.80;1.23;;;18.70;99.90;;;;;;4991935;28;20216;-78
2021/08/27 10:36:48;;;;;;;3.57;1.03;;;18.70;99.90;;;;;;4974313;28;20180;-78
2021/08/27 10:39:37;;;;;;;3.50;1.27;;;18.60;99.90;;;;;;4989285;28;20668;-78
2021/08/27 10:42:03;;;;;;;2.70;1.20;;;18.30;99.90;;;;;;4973896;28;20204;-78
2021/08/27 10:44:49;;;;;;;4.07;1.40;;;17.80;99.90;;;;;;5005187;28;20180;-78
2021/08/27 10:47:15;;;;;;;2.83;1.20;;;17.20;99.90;;;;;;4993950;28;20184;-78
2021/08/27 10:49:47;;;;;;;4.50;1.27;;;16.80;99.90;;;;;;5011728;28;20264;-78
2021/08/27 10:52:33;;;;;;;2.77;1.50;;;16.70;99.90;;;;;;4998654;28;20211;-77
2021/08/27 10:55:04;;;;;;;3.13;1.30;;;16.60;99.90;;;;;;4990060;28;20243;-77
2021/08/27 10:57:49;;;;;;;5.50;1.60;;;16.50;99.90;;;;;;5005295;28;20248;-77
2021/08/27 11:00:29;;;;;;;2.20;1.20;;;16.50;99.90;;;;;;5012664;28;20176;-76
2021/08/27 11:02:55;;;;;;;4.47;1.27;;;16.30;99.90;;;;;;5010680;28;20207;-78
2021/08/27 11:05:34;;;;;;;5.13;1.53;;;16.30;99.90;;;;;;4996170;28;20184;-78
2021/08/27 11:08:10;;;;;;;5.47;1.50;;;16.30;99.90;;;;;;4995171;28;20219;-78
2021/08/27 11:10:37;;;;;;;5.90;1.83;;;16.40;99.90;;;;;;4995564;28;20223;-78
2021/08/27 11:13:07;;;;;;;6.03;1.70;;;16.50;99.90;;;;;;4999536;28;20250;-79
2021/08/27 11:15:33;;;;;;;4.40;1.60;;;16.60;99.90;;;;;;4994509;28;20212;-79
2021/08/27 11:18:05;;;;;;;4.50;1.40;;;16.80;99.90;;;;;;4986197;28;20223;-79
2021/08/27 11:20:31;;;;;;;3.40;1.57;;;17.10;99.90;;;;;;4999746;28;20192;-79
2021/08/27 11:22:57;;;;;;;2.80;1.47;;;17.20;99.90;;;;;;5000632;28;20196;-78
2021/08/27 11:25:24;;;;;;;4.40;1.70;;;17.40;99.90;;;;;;4999233;28;20180;-78
2021/08/27 11:28:25;;;;;;;3.57;1.40;;;17.70;99.90;;;;;;4997643;28;20165;-78
2021/08/27 11:31:01;;;;;;;3.53;1.87;;;18.00;99.90;;;;;;4933641;28;20299;-78
2021/08/27 11:33:43;;;;;;;4.07;1.77;;;18.20;99.90;;;;;;4962055;28;20267;-77
2021/08/27 11:36:09;;;;;;;4.87;1.60;;;18.50;99.90;;;;;;4983454;28;20204;-79
2021/08/27 11:38:35;;;;;;;4.23;1.63;;;18.60;99.90;;;;;;4998220;28;20181;-78
2021/08/27 11:41:00;;;;;;;3.50;1.20;;;18.80;99.90;;;;;;4995521;28;20212;-77
2021/08/27 11:43:47;;;;;;;3.83;1.33;;;19.20;99.90;;;;;;4988577;28;20180;-74
2021/08/27 11:46:18;;;;;;;3.00;1.30;;;19.50;99.90;;;;;;4971839;28;20185;-75
2021/08/27 11:48:46;;;;;;;4.60;1.20;;;19.70;99.90;;;;;;4996559;28;20668;-77
2021/08/27 11:51:15;;;;;;;6.10;1.33;;;19.60;99.90;;;;;;4986324;28;20302;-76
2021/08/27 11:53:41;;;;;;;3.83;1.10;;;19.30;99.90;;;;;;5000625;28;20821;-75
2021/08/27 11:56:06;;;;;;;6.03;1.47;;;18.90;99.90;;;;;;4983374;28;20276;-77
2021/08/27 11:58:45;;;;;;;3.90;1.50;;;18.30;99.90;;;;;;4984999;28;20188;-75
2021/08/27 12:01:27;;;;;;;5.40;1.57;;;17.70;99.90;;;;;;5006374;28;20215;-76
2021/08/27 12:03:53;;;;;;;6.50;1.70;;;17.30;99.90;;;;;;4973198;28;20208;-79
2021/08/27 12:06:20;;;;;;;4.90;1.77;;;17.00;99.90;;;;;;4993896;28;20192;-79
2021/08/27 12:08:47;;;;;;;5.17;1.80;;;16.90;99.90;;;;;;4994961;28;20282;-80
2021/08/27 12:11:13;;;;;;;3.53;1.63;;;17.00;99.90;;;;;;5013410;28;20718;-79
2021/08/27 12:13:49;;;;;;;5.90;1.83;;;17.20;99.90;;;;;;5003348;28;20217;-80
2021/08/27 12:16:15;;;;;;;4.03;1.50;;;17.50;99.90;;;;;;5007238;28;20176;-80
2021/08/27 12:18:42;;;;;;;6.43;1.30;;;17.80;99.90;;;;;;4982577;28;20177;-78
2021/08/27 12:21:08;;;;;;;3.50;1.40;;;18.10;99.90;;;;;;4989871;28;20232;-78
2021/08/27 12:23:38;;;;;;;5.07;1.50;;;18.40;99.90;;;;;;4989819;28;20685;-80
2021/08/27 12:26:08;;;;;;;4.40;1.40;;;18.50;99.90;;;;;;4974785;28;20181;-78
2021/08/27 12:28:35;;;;;;;2.93;1.57;;;18.50;99.90;;;;;;4991574;28;20612;-79
2021/08/27 12:31:01;;;;;;;2.30;1.17;;;18.50;99.90;;;;;;4992227;28;20746;-79
2021/08/27 12:33:28;;;;;;;5.17;1.40;;;18.50;99.90;;;;;;4991833;28;20177;-79
2021/08/27 12:35:56;;;;;;;3.53;1.50;;;18.40;99.90;;;;;;4991488;28;20637;-79
2021/08/27 12:38:22;;;;;;;3.40;1.23;;;18.40;99.90;;;;;;4992220;28;20556;-79
2021/08/27 12:40:48;;;;;;;2.87;1.10;;;18.40;99.90;;;;;;4993468;28;20184;-80
2021/08/27 12:43:15;;;;;;;3.20;1.20;;;18.40;99.90;;;;;;4977497;28;20240;-81
2021/08/27 12:45:52;;;;;;;3.67;1.73;;;18.30;99.90;;;;;;4977293;28;20192;-81
2021/08/27 12:48:19;;;;;;;2.83;1.03;;;18.10;99.90;;;;;;4962400;28;20615;-81
2021/08/27 12:50:48;;;;;;;2.53;1.00;;;17.90;99.90;;;;;;4976400;28;20576;-81
2021/08/27 12:53:14;;;;;;;1.80;0.80;;;17.70;99.90;;;;;;4977017;28;20188;-81